sensor_id;sensor_type;location;lat;lon;timestamp;P1;durP1;ratioP1;P2;durP2;ratioP2
29576;SDS011;16509;53.862;10.672;2023-07-22T00:01:37;2.63;;;2.00;;
29576;SDS011;16509;53.862;10.672;2023-07-22T00:04:03;3.78;;;2.30;;
29576;SDS011;16509;53.862;10.672;2023-07-22T00:06:29;3.78;;;2.35;;
29576;SDS011;16509;53.862;10.672;2023-07-22T00:08:55;2.22;;;2.03;;
29576;SDS011;16509;53.862;10.672;2023-07-22T00:11:20;4.35;;;2.35;;
29576;SDS011;16509;53.862;10.672;2023-07-22T00:13:46;4.15;;;2.50;;
29576;SDS011;16509;53.862;10.672;2023-07-22T00:16:11;1.98;;;1.65;;
29576;SDS011;16509;53.862;10.672;2023-07-22T00:18:37;3.58;;;2.20;;
29576;SDS011;16509;53.862;10.672;2023-07-22T00:21:03;1.92;;;1.60;;
29576;SDS011;16509;53.862;10.672;2023-07-22T00:23:29;2.47;;;1.70;;
29576;SDS011;16509;53.862;10.672;2023-07-22T00:25:55;4.80;;;2.55;;
29576;SDS011;16509;53.862;10.672;2023-07-22T00:28:20;2.47;;;2.05;;
29576;SDS011;16509;53.862;10.672;2023-07-22T00:30:46;2.35;;;1.55;;
29576;SDS011;16509;53.862;10.672;2023-07-22T00:33:14;2.30;;;1.88;;
29576;SDS011;16509;53.862;10.672;2023-07-22T00:35:39;2.10;;;1.48;;
29576;SDS011;16509;53.862;10.672;2023-07-22T00:38:05;2.33;;;2.05;;
29576;SDS011;16509;53.862;10.672;2023-07-22T00:40:31;2.92;;;2.13;;
29576;SDS011;16509;53.862;10.672;2023-07-22T00:42:59;2.53;;;2.15;;
29576;SDS011;16509;53.862;10.672;2023-07-22T00:45:25;1.70;;;1.52;;
29576;SDS011;16509;53.862;10.672;2023-07-22T00:47:50;2.35;;;1.65;;
29576;SDS011;16509;53.862;10.672;2023-07-22T00:50:16;4.85;;;2.30;;
29576;SDS011;16509;53.862;10.672;2023-07-22T00:52:41;1.77;;;1.45;;
29576;SDS011;16509;53.862;10.672;2023-07-22T00:55:07;2.63;;;1.40;;
29576;SDS011;16509;53.862;10.672;2023-07-22T00:57:33;2.55;;;1.90;;
29576;SDS011;16509;53.862;10.672;2023-07-22T00:59:59;2.78;;;1.73;;
29576;SDS011;16509;53.862;10.672;2023-07-22T01:02:24;2.85;;;1.65;;
29576;SDS011;16509;53.862;10.672;2023-07-22T01:04:50;2.72;;;2.08;;
29576;SDS011;16509;53.862;10.672;2023-07-22T01:07:17;2.03;;;1.38;;
29576;SDS011;16509;53.862;10.672;2023-07-22T01:09:43;2.60;;;2.05;;
29576;SDS011;16509;53.862;10.672;2023-07-22T01:12:09;3.03;;;1.73;;
29576;SDS011;16509;53.862;10.672;2023-07-22T01:14:36;2.20;;;1.85;;
29576;SDS011;16509;53.862;10.672;2023-07-22T01:17:06;2.83;;;1.85;;
29576;SDS011;16509;53.862;10.672;2023-07-22T01:19:34;3.65;;;1.80;;
29576;SDS011;16509;53.862;10.672;2023-07-22T01:22:01;2.08;;;1.70;;
29576;SDS011;16509;53.862;10.672;2023-07-22T01:24:32;1.95;;;1.73;;
29576;SDS011;16509;53.862;10.672;2023-07-22T01:26:59;6.22;;;1.23;;
29576;SDS011;16509;53.862;10.672;2023-07-22T01:29:25;2.63;;;1.73;;
29576;SDS011;16509;53.862;10.672;2023-07-22T01:31:52;3.40;;;1.98;;
29576;SDS011;16509;53.862;10.672;2023-07-22T01:34:19;3.92;;;2.40;;
29576;SDS011;16509;53.862;10.672;2023-07-22T01:36:45;3.40;;;2.05;;
29576;SDS011;16509;53.862;10.672;2023-07-22T01:39:12;1.90;;;1.38;;
29576;SDS011;16509;53.862;10.672;2023-07-22T01:41:39;4.57;;;3.10;;
29576;SDS011;16509;53.862;10.672;2023-07-22T01:44:04;4.13;;;2.33;;
29576;SDS011;16509;53.862;10.672;2023-07-22T01:46:30;2.47;;;1.90;;
29576;SDS011;16509;53.862;10.672;2023-07-22T01:48:56;3.20;;;2.40;;
29576;SDS011;16509;53.862;10.672;2023-07-22T01:51:21;5.22;;;2.25;;
29576;SDS011;16509;53.862;10.672;2023-07-22T01:53:47;3.20;;;2.08;;
29576;SDS011;16509;53.862;10.672;2023-07-22T01:56:13;1.77;;;1.58;;
29576;SDS011;16509;53.862;10.672;2023-07-22T01:58:38;1.90;;;1.75;;
29576;SDS011;16509;53.862;10.672;2023-07-22T02:01:04;2.53;;;2.05;;
29576;SDS011;16509;53.862;10.672;2023-07-22T02:03:30;2.97;;;1.75;;
29576;SDS011;16509;53.862;10.672;2023-07-22T02:06:05;3.25;;;2.13;;
29576;SDS011;16509;53.862;10.672;2023-07-22T02:08:31;3.80;;;2.00;;
29576;SDS011;16509;53.862;10.672;2023-07-22T02:11:04;2.92;;;1.67;;
29576;SDS011;16509;53.862;10.672;2023-07-22T02:13:31;5.10;;;2.13;;
29576;SDS011;16509;53.862;10.672;2023-07-22T02:15:58;2.13;;;1.67;;
29576;SDS011;16509;53.862;10.672;2023-07-22T02:18:24;3.00;;;2.17;;
29576;SDS011;16509;53.862;10.672;2023-07-22T02:20:49;9.75;;;2.15;;
29576;SDS011;16509;53.862;10.672;2023-07-22T02:23:15;4.07;;;1.90;;
29576;SDS011;16509;53.862;10.672;2023-07-22T02:25:40;2.72;;;1.52;;
29576;SDS011;16509;53.862;10.672;2023-07-22T02:31:28;2.05;;;1.55;;
29576;SDS011;16509;53.862;10.672;2023-07-22T02:33:54;2.83;;;1.85;;
29576;SDS011;16509;53.862;10.672;2023-07-22T02:36:19;2.80;;;1.92;;
29576;SDS011;16509;53.862;10.672;2023-07-22T02:38:45;2.95;;;2.03;;
29576;SDS011;16509;53.862;10.672;2023-07-22T02:41:10;3.47;;;2.45;;
29576;SDS011;16509;53.862;10.672;2023-07-22T02:43:36;4.28;;;2.72;;
29576;SDS011;16509;53.862;10.672;2023-07-22T02:46:01;2.72;;;1.90;;
29576;SDS011;16509;53.862;10.672;2023-07-22T02:48:29;3.47;;;1.88;;
29576;SDS011;16509;53.862;10.672;2023-07-22T02:51:01;2.80;;;1.80;;
29576;SDS011;16509;53.862;10.672;2023-07-22T02:53:33;4.20;;;2.95;;
29576;SDS011;16509;53.862;10.672;2023-07-22T02:56:01;4.30;;;2.30;;
29576;SDS011;16509;53.862;10.672;2023-07-22T02:58:28;3.85;;;2.38;;
29576;SDS011;16509;53.862;10.672;2023-07-22T03:00:53;5.05;;;2.40;;
29576;SDS011;16509;53.862;10.672;2023-07-22T03:03:19;3.95;;;2.58;;
29576;SDS011;16509;53.862;10.672;2023-07-22T03:05:45;3.50;;;2.15;;
29576;SDS011;16509;53.862;10.672;2023-07-22T03:08:10;4.00;;;2.63;;
29576;SDS011;16509;53.862;10.672;2023-07-22T03:10:36;2.97;;;2.38;;
29576;SDS011;16509;53.862;10.672;2023-07-22T03:13:02;6.18;;;2.55;;
29576;SDS011;16509;53.862;10.672;2023-07-22T03:15:27;5.53;;;2.75;;
29576;SDS011;16509;53.862;10.672;2023-07-22T03:17:53;3.67;;;2.22;;
29576;SDS011;16509;53.862;10.672;2023-07-22T03:20:20;4.28;;;2.55;;
29576;SDS011;16509;53.862;10.672;2023-07-22T03:22:47;4.55;;;3.13;;
29576;SDS011;16509;53.862;10.672;2023-07-22T03:25:14;5.18;;;2.80;;
29576;SDS011;16509;53.862;10.672;2023-07-22T03:27:42;3.28;;;2.13;;
29576;SDS011;16509;53.862;10.672;2023-07-22T03:30:12;13.77;;;3.25;;
29576;SDS011;16509;53.862;10.672;2023-07-22T03:32:42;3.47;;;2.40;;
29576;SDS011;16509;53.862;10.672;2023-07-22T03:35:12;4.50;;;3.03;;
29576;SDS011;16509;53.862;10.672;2023-07-22T03:37:38;4.50;;;2.78;;
29576;SDS011;16509;53.862;10.672;2023-07-22T03:40:04;4.97;;;2.92;;
29576;SDS011;16509;53.862;10.672;2023-07-22T03:42:33;3.22;;;2.28;;
29576;SDS011;16509;53.862;10.672;2023-07-22T03:44:59;3.55;;;2.30;;
29576;SDS011;16509;53.862;10.672;2023-07-22T03:47:24;3.83;;;2.65;;
29576;SDS011;16509;53.862;10.672;2023-07-22T03:49:50;3.97;;;2.42;;
29576;SDS011;16509;53.862;10.672;2023-07-22T03:52:15;4.47;;;2.53;;
29576;SDS011;16509;53.862;10.672;2023-07-22T03:54:43;6.85;;;2.85;;
29576;SDS011;16509;53.862;10.672;2023-07-22T03:57:09;3.65;;;2.85;;
29576;SDS011;16509;53.862;10.672;2023-07-22T03:59:34;3.47;;;2.55;;
29576;SDS011;16509;53.862;10.672;2023-07-22T04:02:00;3.58;;;2.05;;
29576;SDS011;16509;53.862;10.672;2023-07-22T04:04:26;3.78;;;2.20;;
29576;SDS011;16509;53.862;10.672;2023-07-22T04:06:51;5.07;;;2.55;;
29576;SDS011;16509;53.862;10.672;2023-07-22T04:09:17;2.92;;;2.33;;
29576;SDS011;16509;53.862;10.672;2023-07-22T04:11:42;2.60;;;2.20;;
29576;SDS011;16509;53.862;10.672;2023-07-22T04:14:08;3.90;;;2.50;;
29576;SDS011;16509;53.862;10.672;2023-07-22T04:16:34;2.20;;;2.00;;
29576;SDS011;16509;53.862;10.672;2023-07-22T04:18:59;3.88;;;2.42;;
29576;SDS011;16509;53.862;10.672;2023-07-22T04:21:25;4.20;;;2.83;;
29576;SDS011;16509;53.862;10.672;2023-07-22T04:23:50;5.90;;;1.75;;
29576;SDS011;16509;53.862;10.672;2023-07-22T04:26:16;8.02;;;2.78;;
29576;SDS011;16509;53.862;10.672;2023-07-22T04:28:41;4.18;;;2.63;;
29576;SDS011;16509;53.862;10.672;2023-07-22T04:31:07;3.63;;;1.70;;
29576;SDS011;16509;53.862;10.672;2023-07-22T04:33:34;3.40;;;2.03;;
29576;SDS011;16509;53.862;10.672;2023-07-22T04:35:59;4.03;;;2.55;;
29576;SDS011;16509;53.862;10.672;2023-07-22T04:38:25;1.77;;;1.65;;
29576;SDS011;16509;53.862;10.672;2023-07-22T04:40:51;2.90;;;2.08;;
29576;SDS011;16509;53.862;10.672;2023-07-22T04:43:18;3.20;;;2.00;;
29576;SDS011;16509;53.862;10.672;2023-07-22T04:45:46;2.47;;;2.28;;
29576;SDS011;16509;53.862;10.672;2023-07-22T04:48:15;3.97;;;1.92;;
29576;SDS011;16509;53.862;10.672;2023-07-22T04:50:45;3.78;;;1.38;;
29576;SDS011;16509;53.862;10.672;2023-07-22T04:53:11;4.50;;;1.75;;
29576;SDS011;16509;53.862;10.672;2023-07-22T04:55:40;4.38;;;2.13;;
29576;SDS011;16509;53.862;10.672;2023-07-22T04:58:07;2.38;;;1.98;;
29576;SDS011;16509;53.862;10.672;2023-07-22T05:00:33;2.53;;;1.35;;
29576;SDS011;16509;53.862;10.672;2023-07-22T05:02:59;2.20;;;1.85;;
29576;SDS011;16509;53.862;10.672;2023-07-22T05:05:25;3.88;;;1.88;;
29576;SDS011;16509;53.862;10.672;2023-07-22T05:07:51;3.00;;;2.00;;
29576;SDS011;16509;53.862;10.672;2023-07-22T05:10:17;2.03;;;1.73;;
29576;SDS011;16509;53.862;10.672;2023-07-22T05:12:44;4.63;;;2.45;;
29576;SDS011;16509;53.862;10.672;2023-07-22T05:15:10;2.35;;;1.90;;
29576;SDS011;16509;53.862;10.672;2023-07-22T05:17:36;1.95;;;1.58;;
29576;SDS011;16509;53.862;10.672;2023-07-22T05:20:03;3.85;;;2.25;;
29576;SDS011;16509;53.862;10.672;2023-07-22T05:22:31;1.80;;;1.50;;
29576;SDS011;16509;53.862;10.672;2023-07-22T05:24:57;2.00;;;1.15;;
29576;SDS011;16509;53.862;10.672;2023-07-22T05:27:22;2.25;;;1.58;;
29576;SDS011;16509;53.862;10.672;2023-07-22T05:29:50;4.32;;;2.50;;
29576;SDS011;16509;53.862;10.672;2023-07-22T05:32:15;3.00;;;1.92;;
29576;SDS011;16509;53.862;10.672;2023-07-22T05:34:41;6.63;;;1.90;;
29576;SDS011;16509;53.862;10.672;2023-07-22T05:37:07;3.13;;;2.58;;
29576;SDS011;16509;53.862;10.672;2023-07-22T05:39:32;2.35;;;1.63;;
29576;SDS011;16509;53.862;10.672;2023-07-22T05:41:58;3.60;;;1.60;;
29576;SDS011;16509;53.862;10.672;2023-07-22T05:44:23;1.80;;;1.58;;
29576;SDS011;16509;53.862;10.672;2023-07-22T05:46:49;5.43;;;1.85;;
29576;SDS011;16509;53.862;10.672;2023-07-22T05:49:15;2.28;;;1.70;;
29576;SDS011;16509;53.862;10.672;2023-07-22T05:51:40;2.17;;;1.65;;
29576;SDS011;16509;53.862;10.672;2023-07-22T05:54:06;3.03;;;1.40;;
29576;SDS011;16509;53.862;10.672;2023-07-22T05:56:31;3.47;;;1.58;;
29576;SDS011;16509;53.862;10.672;2023-07-22T05:58:57;1.65;;;1.25;;
29576;SDS011;16509;53.862;10.672;2023-07-22T06:01:25;2.78;;;1.60;;
29576;SDS011;16509;53.862;10.672;2023-07-22T06:03:51;1.35;;;1.25;;
29576;SDS011;16509;53.862;10.672;2023-07-22T06:06:17;1.95;;;1.40;;
29576;SDS011;16509;53.862;10.672;2023-07-22T06:08:42;1.85;;;1.30;;
29576;SDS011;16509;53.862;10.672;2023-07-22T06:11:08;1.17;;;1.08;;
29576;SDS011;16509;53.862;10.672;2023-07-22T06:13:33;4.38;;;1.63;;
29576;SDS011;16509;53.862;10.672;2023-07-22T06:15:59;2.17;;;1.33;;
29576;SDS011;16509;53.862;10.672;2023-07-22T06:18:24;1.60;;;1.20;;
29576;SDS011;16509;53.862;10.672;2023-07-22T06:20:50;2.10;;;1.65;;
29576;SDS011;16509;53.862;10.672;2023-07-22T06:23:15;2.40;;;1.50;;
29576;SDS011;16509;53.862;10.672;2023-07-22T06:25:41;2.85;;;1.27;;
29576;SDS011;16509;53.862;10.672;2023-07-22T06:28:07;2.28;;;1.58;;
29576;SDS011;16509;53.862;10.672;2023-07-22T06:30:33;4.43;;;1.67;;
29576;SDS011;16509;53.862;10.672;2023-07-22T06:32:59;1.30;;;1.20;;
29576;SDS011;16509;53.862;10.672;2023-07-22T06:35:25;4.55;;;1.80;;
29576;SDS011;16509;53.862;10.672;2023-07-22T06:37:50;1.08;;;0.98;;
29576;SDS011;16509;53.862;10.672;2023-07-22T06:40:16;3.25;;;1.60;;
29576;SDS011;16509;53.862;10.672;2023-07-22T06:42:42;1.00;;;0.90;;
29576;SDS011;16509;53.862;10.672;2023-07-22T06:45:07;2.25;;;1.27;;
29576;SDS011;16509;53.862;10.672;2023-07-22T06:47:33;1.85;;;1.15;;
29576;SDS011;16509;53.862;10.672;2023-07-22T06:49:59;2.70;;;1.30;;
29576;SDS011;16509;53.862;10.672;2023-07-22T06:52:25;0.98;;;0.98;;
29576;SDS011;16509;53.862;10.672;2023-07-22T06:54:51;2.05;;;1.23;;
29576;SDS011;16509;53.862;10.672;2023-07-22T06:57:16;1.23;;;0.77;;
29576;SDS011;16509;53.862;10.672;2023-07-22T06:59:42;0.70;;;0.70;;
29576;SDS011;16509;53.862;10.672;2023-07-22T07:02:07;1.45;;;0.75;;
29576;SDS011;16509;53.862;10.672;2023-07-22T07:04:33;1.02;;;0.88;;
29576;SDS011;16509;53.862;10.672;2023-07-22T07:06:59;0.80;;;0.80;;
29576;SDS011;16509;53.862;10.672;2023-07-22T07:09:25;1.25;;;1.10;;
29576;SDS011;16509;53.862;10.672;2023-07-22T07:11:51;0.95;;;0.85;;
29576;SDS011;16509;53.862;10.672;2023-07-22T07:14:16;3.25;;;1.15;;
29576;SDS011;16509;53.862;10.672;2023-07-22T07:16:42;1.05;;;0.93;;
29576;SDS011;16509;53.862;10.672;2023-07-22T07:19:09;1.00;;;0.70;;
29576;SDS011;16509;53.862;10.672;2023-07-22T07:21:35;0.85;;;0.77;;
29576;SDS011;16509;53.862;10.672;2023-07-22T07:24:00;0.93;;;0.82;;
29576;SDS011;16509;53.862;10.672;2023-07-22T07:26:26;0.63;;;0.60;;
29576;SDS011;16509;53.862;10.672;2023-07-22T07:28:53;0.98;;;0.88;;
29576;SDS011;16509;53.862;10.672;2023-07-22T07:31:19;0.73;;;0.73;;
29576;SDS011;16509;53.862;10.672;2023-07-22T07:33:45;1.13;;;0.82;;
29576;SDS011;16509;53.862;10.672;2023-07-22T07:36:10;1.40;;;0.65;;
29576;SDS011;16509;53.862;10.672;2023-07-22T07:38:36;1.25;;;0.70;;
29576;SDS011;16509;53.862;10.672;2023-07-22T07:41:03;0.57;;;0.57;;
29576;SDS011;16509;53.862;10.672;2023-07-22T07:43:29;1.65;;;0.80;;
29576;SDS011;16509;53.862;10.672;2023-07-22T07:48:45;0.40;;;0.40;;
29576;SDS011;16509;53.862;10.672;2023-07-22T07:51:16;0.55;;;0.55;;
29576;SDS011;16509;53.862;10.672;2023-07-22T07:53:42;0.55;;;0.55;;
29576;SDS011;16509;53.862;10.672;2023-07-22T07:56:09;0.82;;;0.70;;
29576;SDS011;16509;53.862;10.672;2023-07-22T07:58:35;0.50;;;0.40;;
29576;SDS011;16509;53.862;10.672;2023-07-22T08:01:02;0.90;;;0.52;;
29576;SDS011;16509;53.862;10.672;2023-07-22T08:03:28;0.50;;;0.50;;
29576;SDS011;16509;53.862;10.672;2023-07-22T08:05:53;0.52;;;0.52;;
29576;SDS011;16509;53.862;10.672;2023-07-22T08:08:19;0.68;;;0.60;;
29576;SDS011;16509;53.862;10.672;2023-07-22T08:10:46;1.05;;;0.80;;
29576;SDS011;16509;53.862;10.672;2023-07-22T08:13:11;0.80;;;0.73;;
29576;SDS011;16509;53.862;10.672;2023-07-22T08:15:37;2.53;;;0.32;;
29576;SDS011;16509;53.862;10.672;2023-07-22T08:18:02;0.98;;;0.73;;
29576;SDS011;16509;53.862;10.672;2023-07-22T08:20:29;0.57;;;0.57;;
29576;SDS011;16509;53.862;10.672;2023-07-22T08:22:55;0.40;;;0.40;;
29576;SDS011;16509;53.862;10.672;2023-07-22T08:25:21;0.52;;;0.52;;
29576;SDS011;16509;53.862;10.672;2023-07-22T08:27:46;2.92;;;1.10;;
29576;SDS011;16509;53.862;10.672;2023-07-22T08:30:12;0.60;;;0.60;;
29576;SDS011;16509;53.862;10.672;2023-07-22T08:32:37;0.32;;;0.32;;
29576;SDS011;16509;53.862;10.672;2023-07-22T08:35:03;1.00;;;0.60;;
29576;SDS011;16509;53.862;10.672;2023-07-22T08:37:30;0.40;;;0.40;;
29576;SDS011;16509;53.862;10.672;2023-07-22T08:39:56;1.00;;;0.68;;
29576;SDS011;16509;53.862;10.672;2023-07-22T08:42:21;0.52;;;0.52;;
29576;SDS011;16509;53.862;10.672;2023-07-22T08:44:50;0.50;;;0.50;;
29576;SDS011;16509;53.862;10.672;2023-07-22T08:47:21;0.40;;;0.40;;
29576;SDS011;16509;53.862;10.672;2023-07-22T08:49:50;0.50;;;0.40;;
29576;SDS011;16509;53.862;10.672;2023-07-22T08:52:17;0.73;;;0.60;;
29576;SDS011;16509;53.862;10.672;2023-07-22T08:54:44;0.50;;;0.43;;
29576;SDS011;16509;53.862;10.672;2023-07-22T08:57:11;0.45;;;0.45;;
29576;SDS011;16509;53.862;10.672;2023-07-22T08:59:37;0.70;;;0.50;;
29576;SDS011;16509;53.862;10.672;2023-07-22T09:02:03;1.33;;;0.55;;
29576;SDS011;16509;53.862;10.672;2023-07-22T09:04:30;0.73;;;0.57;;
29576;SDS011;16509;53.862;10.672;2023-07-22T09:06:56;0.70;;;0.63;;
29576;SDS011;16509;53.862;10.672;2023-07-22T09:09:22;0.82;;;0.65;;
29576;SDS011;16509;53.862;10.672;2023-07-22T09:11:50;0.50;;;0.50;;
29576;SDS011;16509;53.862;10.672;2023-07-22T09:14:17;1.33;;;0.80;;
29576;SDS011;16509;53.862;10.672;2023-07-22T09:16:44;1.73;;;0.60;;
29576;SDS011;16509;53.862;10.672;2023-07-22T09:19:09;1.77;;;0.82;;
29576;SDS011;16509;53.862;10.672;2023-07-22T09:21:35;0.95;;;0.93;;
29576;SDS011;16509;53.862;10.672;2023-07-22T09:24:01;3.13;;;0.82;;
29576;SDS011;16509;53.862;10.672;2023-07-22T09:26:27;0.60;;;0.60;;
29576;SDS011;16509;53.862;10.672;2023-07-22T09:28:58;0.90;;;0.73;;
29576;SDS011;16509;53.862;10.672;2023-07-22T09:31:24;0.47;;;0.47;;
29576;SDS011;16509;53.862;10.672;2023-07-22T09:33:50;0.65;;;0.65;;
29576;SDS011;16509;53.862;10.672;2023-07-22T09:36:19;0.70;;;0.70;;
29576;SDS011;16509;53.862;10.672;2023-07-22T09:38:45;0.45;;;0.45;;
29576;SDS011;16509;53.862;10.672;2023-07-22T09:41:11;1.30;;;0.65;;
29576;SDS011;16509;53.862;10.672;2023-07-22T09:43:38;0.50;;;0.50;;
29576;SDS011;16509;53.862;10.672;2023-07-22T09:46:10;0.80;;;0.80;;
29576;SDS011;16509;53.862;10.672;2023-07-22T09:48:44;0.40;;;0.40;;
29576;SDS011;16509;53.862;10.672;2023-07-22T09:51:12;0.50;;;0.50;;
29576;SDS011;16509;53.862;10.672;2023-07-22T09:53:43;0.50;;;0.50;;
29576;SDS011;16509;53.862;10.672;2023-07-22T09:56:10;0.77;;;0.77;;
29576;SDS011;16509;53.862;10.672;2023-07-22T09:58:35;1.15;;;0.57;;
29576;SDS011;16509;53.862;10.672;2023-07-22T10:01:03;1.05;;;0.82;;
29576;SDS011;16509;53.862;10.672;2023-07-22T10:03:30;0.50;;;0.50;;
29576;SDS011;16509;53.862;10.672;2023-07-22T10:05:57;1.27;;;0.95;;
29576;SDS011;16509;53.862;10.672;2023-07-22T10:08:25;0.40;;;0.40;;
29576;SDS011;16509;53.862;10.672;2023-07-22T10:10:54;1.00;;;0.65;;
29576;SDS011;16509;53.862;10.672;2023-07-22T10:13:22;1.05;;;0.63;;
29576;SDS011;16509;53.862;10.672;2023-07-22T10:15:49;1.08;;;0.80;;
29576;SDS011;16509;53.862;10.672;2023-07-22T10:18:15;0.70;;;0.70;;
29576;SDS011;16509;53.862;10.672;2023-07-22T10:20:42;0.60;;;0.60;;
29576;SDS011;16509;53.862;10.672;2023-07-22T10:23:08;1.40;;;0.60;;
29576;SDS011;16509;53.862;10.672;2023-07-22T10:25:36;1.65;;;0.70;;
29576;SDS011;16509;53.862;10.672;2023-07-22T10:28:03;1.10;;;1.00;;
29576;SDS011;16509;53.862;10.672;2023-07-22T10:30:30;0.70;;;0.50;;
29576;SDS011;16509;53.862;10.672;2023-07-22T10:32:56;1.75;;;0.70;;
29576;SDS011;16509;53.862;10.672;2023-07-22T10:35:23;0.70;;;0.60;;
29576;SDS011;16509;53.862;10.672;2023-07-22T10:38:10;0.82;;;0.70;;
29576;SDS011;16509;53.862;10.672;2023-07-22T10:40:47;0.65;;;0.60;;
29576;SDS011;16509;53.862;10.672;2023-07-22T10:43:26;0.70;;;0.70;;
29576;SDS011;16509;53.862;10.672;2023-07-22T10:45:58;0.60;;;0.60;;
29576;SDS011;16509;53.862;10.672;2023-07-22T10:48:33;0.50;;;0.50;;
29576;SDS011;16509;53.862;10.672;2023-07-22T10:51:07;1.00;;;0.70;;
29576;SDS011;16509;53.862;10.672;2023-07-22T10:53:42;1.77;;;0.80;;
29576;SDS011;16509;53.862;10.672;2023-07-22T11:01:22;0.73;;;0.70;;
29576;SDS011;16509;53.862;10.672;2023-07-22T11:14:28;0.73;;;0.60;;
29576;SDS011;16509;53.862;10.672;2023-07-22T11:16:59;0.47;;;0.45;;
29576;SDS011;16509;53.862;10.672;2023-07-22T11:19:28;0.63;;;0.63;;
29576;SDS011;16509;53.862;10.672;2023-07-22T11:21:55;0.40;;;0.40;;
29576;SDS011;16509;53.862;10.672;2023-07-22T11:24:22;1.05;;;0.68;;
29576;SDS011;16509;53.862;10.672;2023-07-22T11:26:48;0.68;;;0.45;;
29576;SDS011;16509;53.862;10.672;2023-07-22T11:29:15;0.70;;;0.57;;
29576;SDS011;16509;53.862;10.672;2023-07-22T11:31:42;1.25;;;0.50;;
29576;SDS011;16509;53.862;10.672;2023-07-22T11:34:10;1.42;;;0.70;;
29576;SDS011;16509;53.862;10.672;2023-07-22T11:36:46;1.55;;;0.40;;
29576;SDS011;16509;53.862;10.672;2023-07-22T11:39:16;0.50;;;0.50;;
29576;SDS011;16509;53.862;10.672;2023-07-22T11:41:44;0.85;;;0.50;;
29576;SDS011;16509;53.862;10.672;2023-07-22T11:44:11;0.40;;;0.40;;
29576;SDS011;16509;53.862;10.672;2023-07-22T11:46:58;0.40;;;0.40;;
29576;SDS011;16509;53.862;10.672;2023-07-22T11:51:54;0.30;;;0.30;;
29576;SDS011;16509;53.862;10.672;2023-07-22T11:54:24;0.30;;;0.30;;
29576;SDS011;16509;53.862;10.672;2023-07-22T11:56:50;0.30;;;0.30;;
29576;SDS011;16509;53.862;10.672;2023-07-22T11:59:16;0.22;;;0.22;;
29576;SDS011;16509;53.862;10.672;2023-07-22T12:01:45;0.52;;;0.52;;
29576;SDS011;16509;53.862;10.672;2023-07-22T12:07:02;1.80;;;0.57;;
29576;SDS011;16509;53.862;10.672;2023-07-22T12:09:29;0.63;;;0.40;;
29576;SDS011;16509;53.862;10.672;2023-07-22T12:11:57;0.73;;;0.73;;
29576;SDS011;16509;53.862;10.672;2023-07-22T12:14:25;0.30;;;0.30;;
29576;SDS011;16509;53.862;10.672;2023-07-22T12:17:01;0.60;;;0.60;;
29576;SDS011;16509;53.862;10.672;2023-07-22T12:19:27;0.60;;;0.60;;
29576;SDS011;16509;53.862;10.672;2023-07-22T12:22:01;0.50;;;0.40;;
29576;SDS011;16509;53.862;10.672;2023-07-22T12:24:27;0.40;;;0.40;;
29576;SDS011;16509;53.862;10.672;2023-07-22T12:26:53;0.68;;;0.63;;
29576;SDS011;16509;53.862;10.672;2023-07-22T12:29:19;0.43;;;0.40;;
29576;SDS011;16509;53.862;10.672;2023-07-22T12:31:47;0.55;;;0.55;;
29576;SDS011;16509;53.862;10.672;2023-07-22T12:34:13;0.50;;;0.43;;
29576;SDS011;16509;53.862;10.672;2023-07-22T12:36:39;0.85;;;0.57;;
29576;SDS011;16509;53.862;10.672;2023-07-22T12:39:06;0.73;;;0.55;;
29576;SDS011;16509;53.862;10.672;2023-07-22T12:41:31;1.02;;;0.60;;
29576;SDS011;16509;53.862;10.672;2023-07-22T12:44:08;0.98;;;0.52;;
29576;SDS011;16509;53.862;10.672;2023-07-22T12:46:34;0.60;;;0.60;;
29576;SDS011;16509;53.862;10.672;2023-07-22T12:48:59;0.82;;;0.70;;
29576;SDS011;16509;53.862;10.672;2023-07-22T12:51:25;1.95;;;1.00;;
29576;SDS011;16509;53.862;10.672;2023-07-22T12:53:50;0.60;;;0.60;;
29576;SDS011;16509;53.862;10.672;2023-07-22T12:56:16;0.70;;;0.70;;
29576;SDS011;16509;53.862;10.672;2023-07-22T12:58:41;1.45;;;0.80;;
29576;SDS011;16509;53.862;10.672;2023-07-22T13:01:07;2.60;;;0.90;;
29576;SDS011;16509;53.862;10.672;2023-07-22T13:03:32;1.13;;;0.90;;
29576;SDS011;16509;53.862;10.672;2023-07-22T13:05:58;2.20;;;0.90;;
29576;SDS011;16509;53.862;10.672;2023-07-22T13:08:23;1.15;;;0.80;;
29576;SDS011;16509;53.862;10.672;2023-07-22T13:10:49;4.15;;;0.98;;
29576;SDS011;16509;53.862;10.672;2023-07-22T13:13:14;0.47;;;0.47;;
29576;SDS011;16509;53.862;10.672;2023-07-22T13:15:40;0.77;;;0.77;;
29576;SDS011;16509;53.862;10.672;2023-07-22T13:18:05;0.57;;;0.55;;
29576;SDS011;16509;53.862;10.672;2023-07-22T13:20:32;0.70;;;0.70;;
29576;SDS011;16509;53.862;10.672;2023-07-22T13:22:58;1.50;;;0.80;;
29576;SDS011;16509;53.862;10.672;2023-07-22T13:25:23;0.90;;;0.50;;
29576;SDS011;16509;53.862;10.672;2023-07-22T13:27:49;1.45;;;0.60;;
29576;SDS011;16509;53.862;10.672;2023-07-22T13:30:14;0.60;;;0.50;;
29576;SDS011;16509;53.862;10.672;2023-07-22T13:32:40;1.17;;;0.88;;
29576;SDS011;16509;53.862;10.672;2023-07-22T13:35:06;1.23;;;1.00;;
29576;SDS011;16509;53.862;10.672;2023-07-22T13:37:32;1.17;;;0.88;;
29576;SDS011;16509;53.862;10.672;2023-07-22T13:39:58;0.98;;;0.75;;
29576;SDS011;16509;53.862;10.672;2023-07-22T13:42:24;0.75;;;0.70;;
29576;SDS011;16509;53.862;10.672;2023-07-22T13:44:49;1.38;;;0.88;;
29576;SDS011;16509;53.862;10.672;2023-07-22T13:47:15;2.15;;;0.82;;
29576;SDS011;16509;53.862;10.672;2023-07-22T13:49:40;1.10;;;1.02;;
29576;SDS011;16509;53.862;10.672;2023-07-22T13:52:06;1.48;;;1.30;;
29576;SDS011;16509;53.862;10.672;2023-07-22T13:54:32;2.30;;;1.27;;
29576;SDS011;16509;53.862;10.672;2023-07-22T13:56:57;0.85;;;0.77;;
29576;SDS011;16509;53.862;10.672;2023-07-22T13:59:23;1.10;;;0.93;;
29576;SDS011;16509;53.862;10.672;2023-07-22T14:01:48;1.48;;;1.17;;
29576;SDS011;16509;53.862;10.672;2023-07-22T14:04:14;2.22;;;1.27;;
29576;SDS011;16509;53.862;10.672;2023-07-22T14:06:39;1.65;;;1.13;;
29576;SDS011;16509;53.862;10.672;2023-07-22T14:09:05;2.00;;;1.10;;
29576;SDS011;16509;53.862;10.672;2023-07-22T14:11:30;1.70;;;1.23;;
29576;SDS011;16509;53.862;10.672;2023-07-22T14:13:56;1.40;;;0.93;;
29576;SDS011;16509;53.862;10.672;2023-07-22T14:16:22;1.08;;;0.85;;
29576;SDS011;16509;53.862;10.672;2023-07-22T14:18:47;1.77;;;1.25;;
29576;SDS011;16509;53.862;10.672;2023-07-22T14:21:13;1.35;;;0.90;;
29576;SDS011;16509;53.862;10.672;2023-07-22T14:23:38;1.58;;;1.23;;
29576;SDS011;16509;53.862;10.672;2023-07-22T14:26:04;1.45;;;1.13;;
29576;SDS011;16509;53.862;10.672;2023-07-22T14:28:29;0.98;;;0.93;;
29576;SDS011;16509;53.862;10.672;2023-07-22T14:30:55;1.33;;;1.10;;
29576;SDS011;16509;53.862;10.672;2023-07-22T14:33:20;2.90;;;1.40;;
29576;SDS011;16509;53.862;10.672;2023-07-22T14:35:46;2.83;;;1.45;;
29576;SDS011;16509;53.862;10.672;2023-07-22T14:38:11;1.42;;;1.13;;
29576;SDS011;16509;53.862;10.672;2023-07-22T14:40:37;1.90;;;1.33;;
29576;SDS011;16509;53.862;10.672;2023-07-22T14:43:02;2.35;;;1.80;;
29576;SDS011;16509;53.862;10.672;2023-07-22T14:45:29;1.90;;;1.35;;
29576;SDS011;16509;53.862;10.672;2023-07-22T14:47:54;3.38;;;1.42;;
29576;SDS011;16509;53.862;10.672;2023-07-22T14:50:20;3.05;;;1.77;;
29576;SDS011;16509;53.862;10.672;2023-07-22T14:52:46;2.15;;;1.33;;
29576;SDS011;16509;53.862;10.672;2023-07-22T14:55:11;2.28;;;1.42;;
29576;SDS011;16509;53.862;10.672;2023-07-22T14:57:37;1.95;;;1.40;;